Time;durP1;ratioP1;P1;durP2;ratioP2;P2;SDS_P1;SDS_P2;PMS_P1;PMS_P2;Temp;Humidity;BMP_temperature;BMP_pressure;BME280_temperature;BME280_humidity;BME280_pressure;Samples;Min_cycle;Max_cycle;Signal;HPM_P1;HPM_P2
2022/04/20 00:00:04;;;;;;;12.88;7.47;;;;;;;2.73;72.38;98986.78;4288831;33;33953;-70
2022/04/20 00:02:37;;;;;;;11.93;7.50;;;;;;;3.24;71.04;98979.75;4287580;33;34995;-70
2022/04/20 00:05:06;;;;;;;12.37;7.28;;;;;;;2.76;72.49;98986.81;4285626;33;34477;-69
2022/04/20 00:07:33;;;;;;;11.45;7.57;;;;;;;2.76;72.94;98986.81;4289705;33;34187;-70
2022/04/20 00:10:02;;;;;;;11.77;7.43;;;;;;;2.67;72.98;98976.41;4289182;33;34751;-70
2022/04/20 00:12:30;;;;;;;13.10;7.85;;;;;;;2.39;73.40;98987.97;4289715;33;36022;-73
2022/04/20 00:14:58;;;;;;;13.18;7.50;;;;;;;2.95;71.46;98984.53;4288559;33;35463;-71
2022/04/20 00:17:26;;;;;;;12.02;7.78;;;;;;;2.75;73.02;98982.50;4288624;33;34273;-69
2022/04/20 00:19:55;;;;;;;11.18;7.07;;;;;;;2.60;72.96;98979.72;4288208;33;34686;-70
2022/04/20 00:22:23;;;;;;;11.38;7.03;;;;;;;2.97;71.74;98977.69;4289386;33;35882;-70
2022/04/20 00:24:50;;;;;;;13.73;8.15;;;;;;;3.14;72.15;98975.34;4290365;33;35214;-70
2022/04/20 00:27:19;;;;;;;12.55;7.78;;;;;;;3.36;70.82;98974.78;4290753;33;34369;-69
2022/04/20 00:29:47;;;;;;;11.50;7.22;;;;;;;3.25;70.97;98985.75;4290457;33;33993;-70
2022/04/20 00:32:15;;;;;;;12.25;7.05;;;;;;;3.61;70.56;98978.50;4291499;33;35952;-70
2022/04/20 00:34:43;;;;;;;12.27;7.05;;;;;;;3.73;70.70;98982.06;4290197;33;35220;-70
2022/04/20 00:37:11;;;;;;;13.57;7.60;;;;;;;3.14;72.44;98975.34;4282386;33;34315;-70
2022/04/20 00:39:38;;;;;;;13.40;7.82;;;;;;;3.00;72.09;98980.28;4283608;33;34006;-70
2022/04/20 00:42:07;;;;;;;12.13;7.78;;;;;;;3.46;71.88;98975.75;4291058;33;35020;-69
2022/04/20 00:44:34;;;;;;;12.23;7.82;;;;;;;3.17;73.59;98972.81;4286792;33;34429;-70
2022/04/20 00:47:03;;;;;;;13.40;8.48;;;;;;;3.00;73.60;98976.03;4291146;33;34537;-69
2022/04/20 00:49:34;;;;;;;12.00;6.65;;;;;;;3.46;72.44;98975.75;4289319;33;35007;-70
2022/04/20 00:52:04;;;;;;;11.80;7.75;;;;;;;3.56;70.96;98980.16;4290178;33;35119;-70
2022/04/20 00:54:32;;;;;;;10.93;6.75;;;;;;;3.68;70.07;98976.84;4289424;33;34404;-70
2022/04/20 00:57:00;;;;;;;13.18;7.80;;;;;;;3.64;69.42;98984.53;4291419;33;34112;-70
2022/04/20 00:59:29;;;;;;;11.40;6.85;;;;;;;2.98;72.43;98994.84;4290474;33;33521;-70
2022/04/20 01:01:59;;;;;;;13.52;7.95;;;;;;;3.21;72.37;98985.75;4290134;33;34949;-70
2022/04/20 01:04:27;;;;;;;16.05;8.25;;;;;;;3.25;71.19;98986.66;4289086;33;34406;-70
2022/04/20 01:06:59;;;;;;;12.20;7.45;;;;;;;2.53;74.95;98988.19;4290051;33;33480;-69
2022/04/20 01:09:28;;;;;;;10.80;7.12;;;;;;;2.96;72.20;98984.53;4280280;33;33933;-73
2022/04/20 01:11:56;;;;;;;12.85;7.93;;;;;;;2.80;71.29;98988.59;4276849;33;35879;-70
2022/04/20 01:14:25;;;;;;;13.27;7.82;;;;;;;2.29;75.24;98994.66;4280960;33;34507;-69
2022/04/20 01:16:53;;;;;;;15.80;8.30;;;;;;;2.24;75.75;98992.00;4288952;33;33634;-70
2022/04/20 01:19:21;;;;;;;13.45;7.62;;;;;;;2.12;75.12;98996.06;4288986;33;34707;-70
2022/04/20 01:21:51;;;;;;;15.35;8.25;;;;;;;2.09;75.45;98997.72;4291200;33;34197;-69
2022/04/20 01:24:23;;;;;;;11.60;7.22;;;;;;;1.94;74.94;99002.63;4289258;33;34496;-72
2022/04/20 01:26:51;;;;;;;12.80;8.20;;;;;;;2.13;74.72;98995.22;4290816;33;33500;-69
2022/04/20 01:29:20;;;;;;;12.45;7.70;;;;;;;2.37;73.90;99002.50;4290236;33;33885;-70
2022/04/20 01:31:49;;;;;;;10.80;6.65;;;;;;;2.12;74.64;99006.31;4290756;33;34834;-70
2022/04/20 01:34:17;;;;;;;9.85;6.18;;;;;;;2.61;72.30;98994.28;4289897;33;34400;-70
2022/04/20 01:36:44;;;;;;;11.55;7.20;;;;;;;2.82;71.51;98999.78;4289716;33;34369;-69
2022/04/20 01:39:13;;;;;;;12.65;7.37;;;;;;;2.65;71.29;99007.22;4289060;33;34017;-70
2022/04/20 01:41:42;;;;;;;15.45;8.02;;;;;;;2.27;72.67;99006.59;4284714;33;35994;-70
2022/04/20 01:44:11;;;;;;;11.55;7.12;;;;;;;2.16;76.50;99001.28;4266078;33;34049;-70
2022/04/20 01:46:39;;;;;;;13.30;7.18;;;;;;;3.12;71.66;99005.31;4291012;33;33370;-70
2022/04/20 01:49:08;;;;;;;11.75;6.97;;;;;;;2.89;72.52;99008.44;4290224;33;33200;-69
2022/04/20 01:51:50;;;;;;;10.80;6.35;;;;;;;2.31;75.79;98998.09;4290802;33;35996;-69
2022/04/20 01:54:20;;;;;;;11.23;6.90;;;;;;;2.73;73.13;98998.78;4290022;33;34199;-69
2022/04/20 01:56:51;;;;;;;13.02;7.25;;;;;;;2.31;73.90;99005.81;4290932;33;34083;-70
2022/04/20 01:59:20;;;;;;;11.57;6.50;;;;;;;2.22;74.71;99003.09;4289729;33;34008;-69
2022/04/20 02:04:35;;;;;;;12.65;7.15;;;;;;;2.32;73.23;99004.97;4290199;33;34611;-69
2022/04/20 02:07:03;;;;;;;11.07;6.53;;;;;;;1.87;74.67;99005.88;4290862;33;34284;-69
2022/04/20 02:09:34;;;;;;;13.50;7.12;;;;;;;2.14;75.10;98997.81;4290018;33;33087;-69
2022/04/20 02:12:03;;;;;;;11.98;6.93;;;;;;;2.17;73.79;98999.56;4289516;33;35835;-70
2022/04/20 02:14:33;;;;;;;11.35;6.53;;;;;;;2.23;74.25;98994.56;4285324;33;149520;-70
2022/04/20 02:17:05;;;;;;;14.75;6.82;;;;;;;1.94;74.72;98997.47;4289841;33;33424;-70
2022/04/20 02:19:33;;;;;;;12.10;6.62;;;;;;;2.27;74.34;98997.19;4288419;33;34691;-70
2022/04/20 02:22:01;;;;;;;10.88;6.80;;;;;;;2.59;72.60;98993.41;4290562;33;35054;-70
2022/04/20 02:24:29;;;;;;;12.27;7.10;;;;;;;3.18;69.74;98990.00;4289551;33;35132;-70
2022/04/20 02:26:57;;;;;;;15.73;7.78;;;;;;;3.21;70.42;98990.91;4289925;33;33701;-70
2022/04/20 02:29:25;;;;;;;10.32;6.47;;;;;;;2.16;73.28;98988.44;4287818;33;33618;-69
2022/04/20 02:31:53;;;;;;;10.85;6.50;;;;;;;2.88;72.19;98995.56;4290585;33;35040;-70
2022/04/20 02:34:22;;;;;;;12.65;7.78;;;;;;;2.84;72.56;98994.63;4290265;33;34155;-70
2022/04/20 02:36:50;;;;;;;11.52;6.82;;;;;;;2.66;74.77;98990.09;4290260;33;33479;-70
2022/04/20 02:39:21;;;;;;;14.60;7.53;;;;;;;2.34;77.08;98993.03;4289104;33;33900;-69
2022/04/20 02:41:50;;;;;;;11.25;7.18;;;;;;;2.68;76.48;98985.84;4290201;33;35140;-70
2022/04/20 02:44:17;;;;;;;12.37;7.03;;;;;;;2.76;75.69;98988.53;4277040;33;35252;-70
2022/04/20 02:46:45;;;;;;;15.65;7.57;;;;;;;2.92;74.20;98989.63;4283099;33;33363;-69
2022/04/20 02:49:15;;;;;;;10.95;7.10;;;;;;;2.35;75.98;98997.34;4276513;33;33922;-69
2022/04/20 02:51:43;;;;;;;11.85;7.03;;;;;;;2.78;73.99;98990.28;4288855;33;35857;-69
2022/04/20 02:54:12;;;;;;;9.82;6.47;;;;;;;2.85;73.31;98986.94;4285677;33;34440;-70
2022/04/20 02:56:40;;;;;;;14.05;7.20;;;;;;;2.63;73.25;98987.50;4288886;33;33313;-73
2022/04/20 02:59:08;;;;;;;12.57;7.87;;;;;;;2.71;74.45;98991.03;4285407;33;34761;-71
2022/04/20 03:01:37;;;;;;;15.25;7.93;;;;;;;2.43;78.40;99000.88;4275969;33;35037;-68
2022/04/20 03:04:06;;;;;;;10.60;6.55;;;;;;;2.59;78.09;98995.97;4275694;33;34530;-69
2022/04/20 03:06:35;;;;;;;14.30;7.55;;;;;;;3.41;74.89;98992.84;4290029;33;32784;-70
2022/04/20 03:09:04;;;;;;;13.55;7.68;;;;;;;3.83;73.30;98996.78;4290172;33;34025;-70
2022/04/20 03:11:34;;;;;;;10.02;6.62;;;;;;;4.17;71.02;99002.25;4290003;33;34801;-69
2022/04/20 03:14:02;;;;;;;12.63;7.55;;;;;;;3.91;71.78;98997.69;4288956;33;35131;-69
2022/04/20 03:16:30;;;;;;;10.75;6.90;;;;;;;4.02;70.89;99002.97;4288132;33;33406;-69
2022/04/20 03:19:00;;;;;;;12.35;6.78;;;;;;;3.60;73.56;98999.09;4290176;33;34729;-71
2022/04/20 03:21:30;;;;;;;13.38;7.90;;;;;;;3.75;72.47;98998.38;4288763;33;34882;-69
2022/04/20 03:23:58;;;;;;;11.45;6.78;;;;;;;3.48;75.37;98999.81;4290104;33;35162;-73
2022/04/20 03:26:27;;;;;;;13.77;7.53;;;;;;;3.97;72.58;98999.47;4289039;33;33470;-68
2022/04/20 03:28:56;;;;;;;13.20;6.80;;;;;;;3.31;74.51;99002.16;4290207;33;33612;-70
2022/04/20 03:31:24;;;;;;;10.82;6.60;;;;;;;3.19;75.20;99008.03;4288810;33;35088;-69
2022/04/20 03:33:59;;;;;;;10.55;6.82;;;;;;;3.15;75.37;99005.38;4288004;33;34335;-72
2022/04/20 03:36:26;;;;;;;12.00;7.22;;;;;;;3.34;74.75;99011.63;4288842;33;34322;-70
2022/04/20 03:38:55;;;;;;;13.57;7.20;;;;;;;3.37;74.92;99012.53;4275786;33;34631;-68
2022/04/20 03:41:23;;;;;;;12.73;7.53;;;;;;;3.13;76.13;99018.22;4287173;33;35107;-69
2022/04/20 03:43:50;;;;;;;10.80;7.05;;;;;;;3.23;76.12;99009.78;4289594;33;35198;-68
2022/04/20 03:46:18;;;;;;;10.43;6.53;;;;;;;3.13;76.81;99013.06;4289000;33;33547;-68
2022/04/20 03:48:47;;;;;;;11.45;6.97;;;;;;;3.04;76.36;99020.66;4277359;33;33579;-68
2022/04/20 03:51:15;;;;;;;12.55;7.72;;;;;;;2.76;77.26;99017.69;4285934;33;35915;-68
2022/04/20 03:53:43;;;;;;;11.73;7.22;;;;;;;3.13;76.65;99018.22;4289637;33;34410;-69
2022/04/20 03:56:11;;;;;;;11.80;7.07;;;;;;;3.30;76.76;99020.16;4288625;33;33617;-72
2022/04/20 03:58:39;;;;;;;10.20;6.30;;;;;;;3.08;77.90;99017.28;4288732;33;33831;-68
2022/04/20 04:01:07;;;;;;;12.77;7.32;;;;;;;3.60;76.55;99015.41;4288866;33;35376;-68
2022/04/20 04:03:36;;;;;;;13.77;7.72;;;;;;;3.48;76.56;99022.97;4288858;33;34557;-73
2022/04/20 04:06:04;;;;;;;12.70;8.10;;;;;;;3.31;77.08;99016.75;4288800;33;33700;-68
2022/04/20 04:08:32;;;;;;;12.60;8.02;;;;;;;3.59;76.42;99020.53;4289498;33;34695;-69
2022/04/20 04:11:00;;;;;;;15.05;7.93;;;;;;;4.25;73.65;99016.06;4288381;33;35083;-67
2022/04/20 04:13:28;;;;;;;14.93;8.00;;;;;;;3.73;75.72;99016.41;4278600;33;35244;-69
2022/04/20 04:15:56;;;;;;;15.00;8.00;;;;;;;3.95;74.34;99020.09;4283509;33;34184;-68
2022/04/20 04:18:25;;;;;;;14.45;8.32;;;;;;;4.23;74.03;99017.78;4288183;33;34783;-68
2022/04/20 04:20:54;;;;;;;13.70;7.55;;;;;;;4.07;74.42;99019.34;4285915;33;35061;-72
2022/04/20 04:23:22;;;;;;;12.13;7.53;;;;;;;4.22;74.48;99030.63;4289458;33;34356;-68
2022/04/20 04:25:51;;;;;;;14.05;8.32;;;;;;;4.41;75.21;99031.69;4288561;33;34358;-73
2022/04/20 04:28:22;;;;;;;15.80;9.52;;;;;;;4.75;74.84;99031.13;4289076;33;34012;-69
2022/04/20 04:30:50;;;;;;;17.85;9.75;;;;;;;5.81;69.08;99036.00;4288086;33;35067;-68
2022/04/20 04:33:19;;;;;;;16.55;9.35;;;;;;;6.17;67.26;99031.81;4289314;33;35155;-68
2022/04/20 04:35:46;;;;;;;15.82;9.80;;;;;;;6.34;67.10;99039.63;4286205;33;33492;-69
2022/04/20 04:38:15;;;;;;;17.33;10.82;;;;;;;6.03;68.72;99042.13;4288885;33;34060;-68
2022/04/20 04:40:43;;;;;;;19.70;10.15;;;;;;;5.38;71.76;99047.84;4288135;33;35017;-69
2022/04/20 04:43:13;;;;;;;17.52;9.70;;;;;;;5.36;71.65;99047.84;4288997;33;34952;-68
2022/04/20 04:48:41;;;;;;;17.87;10.18;;;;;;;5.81;70.38;99051.50;4274729;33;33000;-71
2022/04/20 04:51:10;;;;;;;17.60;10.70;;;;;;;6.11;68.53;99055.09;4283051;33;34999;-68
2022/04/20 04:53:39;;;;;;;17.08;9.13;;;;;;;6.05;68.43;99057.63;4288149;33;34416;-70
2022/04/20 04:56:12;;;;;;;16.85;9.43;;;;;;;6.35;66.79;99053.41;4288043;33;34401;-71
2022/04/20 04:58:40;;;;;;;14.55;9.18;;;;;;;5.60;69.04;99054.88;4289003;33;34613;-73
2022/04/20 05:01:08;;;;;;;15.25;9.77;;;;;;;6.00;68.38;99061.94;4287560;33;35797;-69
2022/04/20 05:03:38;;;;;;;13.55;8.35;;;;;;;5.92;68.84;99067.06;4286922;33;33715;-75
2022/04/20 05:06:07;;;;;;;13.57;9.00;;;;;;;5.13;72.49;99065.78;4282368;33;34236;-74
2022/04/20 05:08:37;;;;;;;14.27;8.63;;;;;;;6.20;69.80;99059.41;4283046;33;33861;-74
2022/04/20 05:11:07;;;;;;;16.92;9.25;;;;;;;6.47;69.65;99057.75;4283075;33;35809;-74
2022/04/20 05:13:35;;;;;;;17.87;9.45;;;;;;;6.53;70.92;99058.63;4290605;33;35160;-70
2022/04/20 05:16:03;;;;;;;15.85;9.63;;;;;;;6.73;70.12;99060.34;4290081;33;33286;-69
2022/04/20 05:18:31;;;;;;;15.00;10.13;;;;;;;6.46;72.62;99059.47;4290864;33;34002;-69
2022/04/20 05:20:59;;;;;;;14.40;8.98;;;;;;;6.50;72.03;99065.50;4289680;33;35037;-69
2022/04/20 05:23:27;;;;;;;14.57;8.88;;;;;;;6.89;70.65;99062.06;4279408;33;34350;-70
2022/04/20 05:25:56;;;;;;;14.65;9.00;;;;;;;7.20;69.68;99069.81;4287815;33;34305;-69
2022/04/20 05:28:24;;;;;;;13.62;8.20;;;;;;;8.29;64.85;99063.34;4290803;33;33897;-70
2022/04/20 05:30:52;;;;;;;12.80;8.13;;;;;;;9.04;62.51;99062.81;4289833;33;35150;-70
2022/04/20 05:33:21;;;;;;;11.98;8.27;;;;;;;8.45;65.22;99069.34;4291129;33;34512;-70
2022/04/20 05:35:49;;;;;;;12.18;8.45;;;;;;;8.71;63.56;99066.56;4290176;33;34563;-70
2022/04/20 05:43:50;;;;;;;11.63;7.30;;;;;;;8.33;65.44;99068.53;4290691;33;34478;-76
2022/04/20 05:46:19;;;;;;;12.23;7.78;;;;;;;8.23;65.18;99073.78;4290118;33;33868;-70
2022/04/20 05:48:47;;;;;;;10.70;7.72;;;;;;;8.91;62.50;99069.88;4290956;33;34752;-71
2022/04/20 05:51:15;;;;;;;10.63;7.03;;;;;;;8.86;63.04;99068.19;4290031;33;35460;-70
2022/04/20 05:53:44;;;;;;;12.10;7.18;;;;;;;9.40;61.20;99072.88;4290770;33;35258;-70
2022/04/20 05:56:12;;;;;;;10.13;6.80;;;;;;;9.89;61.02;99071.47;4289022;33;33543;-70
2022/04/20 05:58:40;;;;;;;10.40;6.87;;;;;;;10.03;59.69;99073.00;4280321;33;34852;-71
2022/04/20 06:01:08;;;;;;;10.07;6.82;;;;;;;9.65;58.44;99074.34;4282341;33;35797;-70
2022/04/20 06:03:38;;;;;;;11.45;6.25;;;;;;;9.79;58.01;99073.31;4290839;33;34386;-70
2022/04/20 06:06:09;;;;;;;10.10;6.90;;;;;;;10.24;57.52;99068.41;4289875;33;33525;-70
2022/04/20 06:08:38;;;;;;;10.70;6.60;;;;;;;10.29;56.71;99071.81;4290629;33;34810;-71
2022/04/20 06:11:07;;;;;;;8.70;6.35;;;;;;;10.70;57.14;99069.50;4290019;33;35046;-70
2022/04/20 06:13:35;;;;;;;8.85;6.28;;;;;;;10.97;56.20;99065.59;4290656;33;34585;-71
2022/04/20 06:16:07;;;;;;;10.57;6.30;;;;;;;10.55;56.36;99067.97;4289409;33;33475;-70
2022/04/20 06:18:35;;;;;;;9.30;6.55;;;;;;;10.88;53.95;99065.75;4290508;33;34151;-71
2022/04/20 06:21:05;;;;;;;11.27;7.22;;;;;;;10.15;57.36;99066.78;4289454;33;35983;-71
2022/04/20 06:23:34;;;;;;;10.68;6.43;;;;;;;10.48;56.31;99067.19;4290762;33;34497;-70
2022/04/20 06:26:03;;;;;;;9.80;6.35;;;;;;;10.87;55.48;99069.22;4289586;33;34302;-70
2022/04/20 06:28:31;;;;;;;11.25;6.37;;;;;;;11.04;53.40;99061.97;4285489;33;34856;-70
2022/04/20 06:30:59;;;;;;;11.10;7.00;;;;;;;11.18;52.90;99070.41;4280689;33;35778;-70
2022/04/20 06:33:28;;;;;;;9.43;6.40;;;;;;;10.70;55.90;99072.09;4289963;33;35344;-71
2022/04/20 06:36:02;;;;;;;8.57;5.85;;;;;;;11.54;53.64;99060.22;4288592;33;33752;-77
2022/04/20 06:38:30;;;;;;;10.73;6.15;;;;;;;11.11;54.69;99067.97;4290641;33;34746;-70
2022/04/20 06:40:59;;;;;;;9.63;6.37;;;;;;;11.95;51.26;99065.53;4289612;33;35228;-71
2022/04/20 06:43:32;;;;;;;9.00;6.10;;;;;;;11.77;51.35;99054.53;4289773;33;34397;-71
2022/04/20 06:46:01;;;;;;;9.10;6.55;;;;;;;12.57;49.79;99054.59;4289482;33;34180;-71
2022/04/20 06:48:31;;;;;;;9.93;7.10;;;;;;;12.45;48.64;99053.09;4290528;33;33923;-71
2022/04/20 06:51:01;;;;;;;11.25;6.28;;;;;;;12.16;50.28;99050.28;4287233;33;35018;-71
2022/04/20 06:58:31;;;;;;;10.77;6.43;;;;;;;12.16;51.43;99045.94;4289272;33;33465;-73
2022/04/20 06:59:16;;;;;;;9.70;5.55;;;;;;;11.89;54.13;99036.91;4284072;33;34921;-71
2022/04/20 07:01:47;;;;;;;9.57;5.65;;;;;;;12.77;50.98;99045.41;4284816;33;35232;-72
2022/04/20 07:04:15;;;;;;;7.75;5.40;;;;;;;12.69;49.00;99035.16;4290395;33;35270;-71
2022/04/20 07:06:47;;;;;;;8.27;5.43;;;;;;;12.42;50.57;99047.09;4289815;33;34365;-71
2022/04/20 07:09:15;;;;;;;10.40;5.53;;;;;;;12.52;51.19;99040.78;4276411;33;34905;-71
2022/04/20 07:11:43;;;;;;;8.93;5.57;;;;;;;12.24;50.27;99044.00;4283545;33;35131;-71
2022/04/20 07:14:11;;;;;;;9.35;6.78;;;;;;;12.41;51.40;99041.03;4290553;33;34444;-70
2022/04/20 07:16:39;;;;;;;8.82;5.82;;;;;;;12.51;51.46;99037.31;4288259;33;33286;-71
2022/04/20 07:19:07;;;;;;;8.88;5.93;;;;;;;12.37;50.31;99049.84;4290089;33;33977;-70
2022/04/20 07:21:36;;;;;;;9.23;5.22;;;;;;;12.36;50.01;99042.03;4289351;33;35054;-71
2022/04/20 07:24:05;;;;;;;9.90;6.07;;;;;;;13.07;47.61;99044.62;4290119;33;34454;-70
2022/04/20 07:26:34;;;;;;;9.25;5.68;;;;;;;12.63;49.28;99038.75;4289220;33;33651;-70
2022/04/20 07:29:02;;;;;;;11.40;6.82;;;;;;;12.91;48.13;99032.87;4290023;33;34548;-71
2022/04/20 07:31:32;;;;;;;9.10;5.55;;;;;;;12.96;49.80;99045.81;4288620;33;35051;-71
2022/04/20 07:34:04;;;;;;;10.40;6.20;;;;;;;13.50;45.90;99044.44;4289256;33;33160;-70
2022/04/20 07:36:32;;;;;;;9.75;6.18;;;;;;;13.67;46.59;99046.59;4289043;33;34399;-71
2022/04/20 07:39:00;;;;;;;9.50;5.90;;;;;;;14.17;45.21;99050.34;4290135;33;33657;-72
2022/04/20 07:41:31;;;;;;;12.00;6.30;;;;;;;13.47;45.74;99050.63;4289267;33;34312;-71
2022/04/20 07:43:59;;;;;;;10.02;6.45;;;;;;;13.75;45.57;99045.47;4283893;33;34884;-70
2022/04/20 07:46:27;;;;;;;9.48;6.90;;;;;;;13.52;45.51;99050.47;4280840;33;33484;-70
2022/04/20 07:48:56;;;;;;;8.80;5.90;;;;;;;13.59;46.40;99052.03;4282564;33;33970;-70
2022/04/20 07:51:24;;;;;;;10.30;6.30;;;;;;;13.84;45.26;99049.59;4280314;33;35210;-70
2022/04/20 07:53:52;;;;;;;8.95;6.37;;;;;;;14.50;43.33;99047.59;4289926;33;35247;-68
2022/04/20 07:56:23;;;;;;;9.55;5.97;;;;;;;14.39;44.15;99049.69;4289075;33;34295;-67
2022/04/20 07:58:51;;;;;;;13.90;6.70;;;;;;;14.09;42.47;99047.09;4289681;33;34044;-68
2022/04/20 08:01:20;;;;;;;8.65;6.47;;;;;;;15.50;42.42;99048.69;4288194;33;35132;-68
2022/04/20 08:03:51;;;;;;;16.48;6.87;;;;;;;14.40;43.21;99052.28;4282823;33;34712;-70
2022/04/20 08:06:20;;;;;;;9.68;6.50;;;;;;;14.53;45.74;99054.50;4276570;33;33592;-69
2022/04/20 08:08:49;;;;;;;12.48;6.18;;;;;;;14.86;43.30;99052.59;4275484;33;33956;-71
2022/04/20 08:11:17;;;;;;;9.57;6.50;;;;;;;14.59;42.61;99049.97;4278839;33;35248;-71
2022/04/20 08:16:35;;;;;;;13.35;6.45;;;;;;;15.32;40.86;99035.31;4280738;33;33699;-72
2022/04/20 08:19:06;;;;;;;9.27;6.43;;;;;;;15.31;42.67;99028.31;4284276;33;33931;-71
2022/04/20 08:21:36;;;;;;;11.93;6.53;;;;;;;15.34;42.47;99030.84;4280393;33;35167;-71
2022/04/20 08:24:04;;;;;;;11.70;5.43;;;;;;;15.88;40.02;99028.06;4289268;33;34377;-71
2022/04/20 08:26:32;;;;;;;9.48;6.43;;;;;;;15.43;42.39;99032.28;4288337;33;33516;-71
2022/04/20 08:29:00;;;;;;;10.02;6.22;;;;;;;16.19;38.24;99025.13;4289362;33;34674;-70
2022/04/20 08:31:29;;;;;;;11.88;6.68;;;;;;;16.02;40.04;99025.78;4288215;33;34886;-70
2022/04/20 08:33:57;;;;;;;23.92;8.15;;;;;;;16.20;39.82;99018.09;4288236;33;34602;-70
2022/04/20 08:36:25;;;;;;;9.90;5.57;;;;;;;16.65;36.53;99014.56;4287274;33;33535;-73
2022/04/20 08:38:53;;;;;;;12.70;6.43;;;;;;;16.42;38.69;99018.97;4288934;33;33962;-72
2022/04/20 08:41:21;;;;;;;8.25;5.45;;;;;;;16.11;39.86;99014.94;4280506;33;35137;-72
2022/04/20 08:43:49;;;;;;;10.73;5.25;;;;;;;16.51;38.24;99019.53;4287747;33;35064;-70
2022/04/20 08:46:18;;;;;;;7.93;5.12;;;;;;;16.80;38.16;99015.69;4287281;33;33397;-70
2022/04/20 08:48:52;;;;;;;12.98;6.50;;;;;;;16.79;37.21;99011.38;4290998;33;34773;-69
2022/04/20 08:51:20;;;;;;;10.20;5.05;;;;;;;17.27;36.15;99018.13;4286756;33;35146;-70
2022/04/20 08:53:48;;;;;;;10.85;5.40;;;;;;;16.33;38.26;99029.00;4290445;33;34506;-70
2022/04/20 08:59:04;;;;;;;6.70;4.55;;;;;;;16.89;35.08;99023.25;4290759;33;33925;-70
2022/04/20 09:01:32;;;;;;;9.95;5.95;;;;;;;15.92;36.61;99019.19;4290820;33;35938;-70
2022/04/20 09:04:01;;;;;;;11.10;5.82;;;;;;;15.60;38.76;99017.69;4290904;33;34355;-73
2022/04/20 09:06:29;;;;;;;13.48;7.20;;;;;;;16.18;37.95;99012.06;4289667;33;33916;-73
2022/04/20 09:08:57;;;;;;;7.90;5.85;;;;;;;16.46;38.53;99015.31;4290185;33;33960;-71
2022/04/20 09:11:25;;;;;;;9.82;5.90;;;;;;;17.06;38.44;99006.75;4276975;33;34122;-72
2022/04/20 09:13:53;;;;;;;7.25;5.30;;;;;;;17.57;33.82;99008.03;4289730;33;34446;-71
2022/04/20 09:16:21;;;;;;;9.75;5.53;;;;;;;16.03;37.71;99017.00;4289826;33;33545;-72
2022/04/20 09:18:50;;;;;;;10.25;6.10;;;;;;;16.54;34.48;99011.53;4290583;33;34790;-72
2022/04/20 09:21:20;;;;;;;8.70;6.32;;;;;;;16.37;35.74;99015.69;4289947;33;35912;-71
2022/04/20 09:24:04;;;;;;;8.48;5.60;;;;;;;16.90;35.96;99013.59;4280208;33;35263;-71
2022/04/20 09:26:32;;;;;;;8.40;5.47;;;;;;;16.80;37.68;99008.69;4279278;33;34395;-71
2022/04/20 09:29:07;;;;;;;13.43;6.12;;;;;;;17.32;34.20;99007.41;4290850;33;34551;-71
2022/04/20 09:31:43;;;;;;;9.18;5.25;;;;;;;18.00;31.98;99003.47;4288514;33;33399;-70
2022/04/20 09:34:33;;;;;;;;;;;;;;;18.53;32.23;99000.97;4289991;33;33857;-72
2022/04/20 09:37:12;;;;;;;8.50;5.07;;;;;;;18.70;32.82;98995.72;4290185;33;33335;-71
2022/04/20 09:39:45;;;;;;;9.80;5.72;;;;;;;18.03;34.32;99001.63;4280894;33;33907;-70
2022/04/20 09:42:14;;;;;;;8.95;6.05;;;;;;;16.99;36.07;98998.25;4275130;33;34980;-71
2022/04/20 09:45:12;;;;;;;7.78;5.12;;;;;;;17.44;33.39;98991.94;4289745;33;35074;-71
2022/04/20 09:50:29;;;;;;;38.25;9.48;;;;;;;16.99;32.87;98994.78;4290655;33;34699;-70
2022/04/20 09:53:01;;;;;;;8.73;5.68;;;;;;;17.21;33.88;98989.47;4289728;33;34222;-71
2022/04/20 09:55:36;;;;;;;8.13;5.05;;;;;;;17.16;34.65;98999.34;4282193;33;34518;-70
2022/04/20 09:58:12;;;;;;;9.80;5.15;;;;;;;18.38;32.77;98979.69;4283742;33;33691;-70
2022/04/20 10:00:42;;;;;;;7.97;5.22;;;;;;;17.10;32.25;98994.31;4288567;33;34062;-70
2022/04/20 10:03:12;;;;;;;7.95;4.60;;;;;;;16.96;32.06;98992.28;4288480;33;35991;-69
2022/04/20 10:05:40;;;;;;;6.45;4.93;;;;;;;16.86;33.27;98992.66;4289295;33;35286;-72
2022/04/20 10:08:08;;;;;;;9.75;5.32;;;;;;;17.01;32.78;98990.31;4289648;33;34371;-73
2022/04/20 10:10:37;;;;;;;8.88;5.80;;;;;;;16.79;32.35;98985.94;4286954;33;33825;-73
2022/04/20 10:13:05;;;;;;;5.93;4.32;;;;;;;17.79;32.73;98984.22;4287061;33;34989;-75
2022/04/20 10:18:21;;;;;;;20.23;5.10;;;;;;;17.56;33.51;98987.03;4288595;33;33480;-72
2022/04/20 10:20:52;;;;;;;10.43;5.47;;;;;;;16.42;33.10;98987.44;4286467;33;34085;-71
2022/04/20 10:23:22;;;;;;;35.15;6.45;;;;;;;16.57;33.33;98987.72;4288207;33;35686;-72
2022/04/20 10:25:52;;;;;;;12.35;5.30;;;;;;;17.36;35.07;98983.50;4290640;33;35337;-72
2022/04/20 10:28:30;;;;;;;14.35;5.37;;;;;;;18.72;31.43;98979.81;4287423;33;33471;-72
2022/04/20 10:30:58;;;;;;;7.97;4.93;;;;;;;18.77;29.75;98983.09;4289226;33;33917;-73
2022/04/20 10:33:30;;;;;;;10.70;6.15;;;;;;;19.23;28.75;98964.09;4288607;33;35213;-70
2022/04/20 10:36:04;;;;;;;8.27;5.43;;;;;;;19.23;31.32;98969.34;4268416;33;34371;-69
2022/04/20 10:38:32;;;;;;;9.98;5.80;;;;;;;18.04;30.85;98972.56;4289476;33;34253;-69
2022/04/20 10:41:10;;;;;;;10.73;7.18;;;;;;;17.52;31.76;98975.78;4290363;33;33419;-69
2022/04/20 10:43:42;;;;;;;12.10;8.07;;;;;;;16.56;34.61;98972.91;4289632;33;35098;-68
2022/04/20 10:46:18;;;;;;;9.30;6.70;;;;;;;17.33;35.03;98986.31;4289237;33;32371;-68
2022/04/20 10:48:58;;;;;;;13.62;6.60;;;;;;;17.07;35.65;98974.28;4290005;33;33661;-68
2022/04/20 10:51:30;;;;;;;8.93;5.97;;;;;;;17.35;36.09;98973.06;4289229;33;34826;-69
2022/04/20 10:54:20;;;;;;;7.72;5.15;;;;;;;17.34;34.21;98966.94;4289351;33;35022;-68
2022/04/20 10:57:01;;;;;;;12.18;5.82;;;;;;;18.92;28.53;98960.41;4289199;33;34428;-70
2022/04/20 10:59:29;;;;;;;12.32;5.60;;;;;;;18.44;30.24;98965.41;4289301;33;34347;-71
2022/04/20 11:02:03;;;;;;;45.42;7.70;;;;;;;19.61;32.49;98958.56;4288224;33;33911;-73
2022/04/20 11:04:32;;;;;;;12.25;5.18;;;;;;;18.50;30.41;98959.81;4290207;33;36157;-71
2022/04/20 11:07:01;;;;;;;8.50;5.25;;;;;;;20.08;26.38;98957.75;4289140;33;35383;-72
2022/04/20 11:09:45;;;;;;;10.23;6.65;;;;;;;18.38;31.52;98963.87;4289441;33;33532;-71
2022/04/20 11:18:41;;;;;;;8.90;6.25;;;;;;;18.96;29.51;98966.38;4289276;33;34589;-74
2022/04/20 11:21:12;;;;;;;30.77;10.55;;;;;;;17.72;30.96;98953.84;4290350;33;34381;-70
2022/04/20 11:23:51;;;;;;;156.02;20.83;;;;;;;19.52;31.27;98955.47;4288377;33;34015;-71
2022/04/20 11:26:39;;;;;;;8.40;5.55;;;;;;;18.42;29.15;98953.19;4289032;33;35370;-70
2022/04/20 11:29:10;;;;;;;7.45;5.18;;;;;;;16.96;29.80;98951.06;4287495;33;34435;-70
2022/04/20 11:31:42;;;;;;;6.47;5.12;;;;;;;17.87;30.06;98954.06;4287234;33;33672;-71
2022/04/20 11:34:13;;;;;;;8.70;5.75;;;;;;;18.09;26.98;98943.34;4289956;33;33824;-71
2022/04/20 11:36:43;;;;;;;22.48;6.12;;;;;;;17.21;32.35;98950.84;4289356;33;35198;-71
2022/04/20 11:39:12;;;;;;;14.10;5.78;;;;;;;17.21;29.59;98950.84;4289874;33;33748;-71
2022/04/20 11:41:47;;;;;;;8.45;5.68;;;;;;;16.11;31.04;98953.66;4287856;33;33634;-71
2022/04/20 11:44:31;;;;;;;23.17;8.57;;;;;;;16.11;31.13;98951.03;4288887;33;34722;-71
2022/04/20 11:47:04;;;;;;;9.65;5.80;;;;;;;16.72;31.16;98945.03;4286802;33;34925;-70
2022/04/20 11:49:43;;;;;;;10.07;6.35;;;;;;;16.55;30.89;98943.09;4289889;33;34526;-71
2022/04/20 11:52:14;;;;;;;43.13;8.32;;;;;;;16.99;32.08;98939.53;4287752;33;33570;-70
2022/04/20 11:54:46;;;;;;;20.90;8.00;;;;;;;17.29;32.04;98947.03;4290024;33;33990;-71
2022/04/20 11:57:16;;;;;;;176.68;24.08;;;;;;;17.42;31.40;98945.56;4288944;33;34607;-72
2022/04/20 11:59:51;;;;;;;537.92;75.80;;;;;;;17.67;31.88;98944.44;4288241;33;34596;-70
2022/04/20 12:02:19;;;;;;;129.35;18.70;;;;;;;16.64;32.93;98940.13;4278573;33;34367;-71
2022/04/20 12:05:03;;;;;;;114.78;15.15;;;;;;;16.81;31.40;98936.75;4282407;33;34091;-69
2022/04/20 12:07:33;;;;;;;12.88;5.75;;;;;;;17.71;29.74;98943.38;4288642;33;35890;-68
2022/04/20 12:10:03;;;;;;;9.63;6.20;;;;;;;19.19;30.92;98934.34;4289489;33;36566;-71
2022/04/20 12:12:33;;;;;;;8.70;6.25;;;;;;;18.59;28.85;98929.50;4287436;33;34286;-70
2022/04/20 12:15:07;;;;;;;10.30;6.15;;;;;;;18.58;29.02;98930.41;4288429;33;33958;-72